Portal, North Dakota
Current Conditions -  °F | °C
As of 11:00 AM on Thursday 27 Nov 2014 (Local Time) from CYEN Reporting Station
Light Snow Light Snow  
Wind Chill: -5°   Ceiling: 1100
Heat Index: 10°   Visibility: 5mi
Dew Point:   Wind: 14mph
Humidity: 85%   Direction: 110°ESE
Pressure: 30.08"   Gusts: NA
Location:  49°N, 102.55°W
Report Text: CYEN 271700Z 11012KT 5SM -SN BR OVC011 M12/M14 A3008 RMK SC8PRESFR SLP250
Loading
Personal Weather Stations






























Interactive Weather Map New forecast layout! Learn more

10-Day Weather Forecast

Advertisements
Track Severe Weather on mobile